sensor_id;sensor_type;location;lat;lon;timestamp;P1;durP1;ratioP1;P2;durP2;ratioP2
40815;SDS011;26535;48.788;9.214;2024-03-02T00:00:51;17.35;;;11.20;;
40815;SDS011;26535;48.788;9.214;2024-03-02T00:03:18;19.05;;;11.05;;
40815;SDS011;26535;48.788;9.214;2024-03-02T00:05:47;16.77;;;10.00;;
40815;SDS011;26535;48.788;9.214;2024-03-02T00:08:17;15.60;;;10.52;;
40815;SDS011;26535;48.788;9.214;2024-03-02T00:10:51;17.67;;;10.85;;
40815;SDS011;26535;48.788;9.214;2024-03-02T00:13:18;14.95;;;9.77;;
40815;SDS011;26535;48.788;9.214;2024-03-02T06:02:42;43.22;;;20.13;;
40815;SDS011;26535;48.788;9.214;2024-03-02T06:05:07;44.65;;;20.27;;
40815;SDS011;26535;48.788;9.214;2024-03-02T06:07:33;40.22;;;20.35;;
40815;SDS011;26535;48.788;9.214;2024-03-02T06:09:59;41.22;;;20.55;;
40815;SDS011;26535;48.788;9.214;2024-03-02T06:12:25;37.28;;;19.88;;
40815;SDS011;26535;48.788;9.214;2024-03-02T06:14:50;42.72;;;20.25;;
40815;SDS011;26535;48.788;9.214;2024-03-02T06:17:16;43.30;;;20.85;;
40815;SDS011;26535;48.788;9.214;2024-03-02T06:19:42;37.10;;;20.15;;
40815;SDS011;26535;48.788;9.214;2024-03-02T06:22:07;39.88;;;19.58;;
40815;SDS011;26535;48.788;9.214;2024-03-02T06:24:37;35.30;;;19.02;;
40815;SDS011;26535;48.788;9.214;2024-03-02T06:27:05;39.28;;;20.30;;
40815;SDS011;26535;48.788;9.214;2024-03-02T06:29:34;40.72;;;20.27;;
40815;SDS011;26535;48.788;9.214;2024-03-02T06:32:00;34.58;;;18.55;;
40815;SDS011;26535;48.788;9.214;2024-03-02T06:34:26;32.47;;;18.55;;
40815;SDS011;26535;48.788;9.214;2024-03-02T06:36:51;34.90;;;19.45;;
40815;SDS011;26535;48.788;9.214;2024-03-02T06:39:17;34.22;;;18.38;;
40815;SDS011;26535;48.788;9.214;2024-03-02T06:41:43;31.85;;;17.80;;
40815;SDS011;26535;48.788;9.214;2024-03-02T06:44:08;31.55;;;17.10;;
40815;SDS011;26535;48.788;9.214;2024-03-02T06:46:34;28.88;;;16.45;;
40815;SDS011;26535;48.788;9.214;2024-03-02T06:49:00;30.58;;;15.60;;
40815;SDS011;26535;48.788;9.214;2024-03-02T06:51:27;32.70;;;16.80;;
40815;SDS011;26535;48.788;9.214;2024-03-02T06:53:53;29.65;;;16.27;;
40815;SDS011;26535;48.788;9.214;2024-03-02T06:56:18;32.03;;;16.60;;
40815;SDS011;26535;48.788;9.214;2024-03-02T06:58:44;31.17;;;15.65;;
40815;SDS011;26535;48.788;9.214;2024-03-02T07:01:10;30.00;;;16.27;;
40815;SDS011;26535;48.788;9.214;2024-03-02T07:03:35;28.65;;;15.82;;
40815;SDS011;26535;48.788;9.214;2024-03-02T07:06:01;26.17;;;14.65;;
40815;SDS011;26535;48.788;9.214;2024-03-02T07:08:28;25.48;;;14.77;;
40815;SDS011;26535;48.788;9.214;2024-03-02T07:10:53;25.88;;;14.40;;
40815;SDS011;26535;48.788;9.214;2024-03-02T07:13:19;26.70;;;14.85;;
40815;SDS011;26535;48.788;9.214;2024-03-02T07:15:45;27.70;;;15.20;;
40815;SDS011;26535;48.788;9.214;2024-03-02T07:18:11;24.52;;;14.27;;
40815;SDS011;26535;48.788;9.214;2024-03-02T07:20:36;24.52;;;14.73;;
40815;SDS011;26535;48.788;9.214;2024-03-02T07:23:04;24.38;;;15.07;;
40815;SDS011;26535;48.788;9.214;2024-03-02T07:25:30;25.80;;;14.75;;
40815;SDS011;26535;48.788;9.214;2024-03-02T07:27:56;24.38;;;14.57;;
40815;SDS011;26535;48.788;9.214;2024-03-02T07:30:22;25.25;;;13.35;;
40815;SDS011;26535;48.788;9.214;2024-03-02T07:32:49;23.67;;;13.60;;
40815;SDS011;26535;48.788;9.214;2024-03-02T07:35:15;24.77;;;14.80;;
40815;SDS011;26535;48.788;9.214;2024-03-02T07:37:41;22.50;;;13.60;;
40815;SDS011;26535;48.788;9.214;2024-03-02T07:40:08;21.83;;;12.68;;
40815;SDS011;26535;48.788;9.214;2024-03-02T07:42:40;24.40;;;13.00;;
40815;SDS011;26535;48.788;9.214;2024-03-02T07:45:06;20.67;;;11.80;;
40815;SDS011;26535;48.788;9.214;2024-03-02T07:47:33;20.02;;;10.95;;
40815;SDS011;26535;48.788;9.214;2024-03-02T07:49:59;20.42;;;10.68;;
40815;SDS011;26535;48.788;9.214;2024-03-02T07:52:25;16.77;;;10.60;;
40815;SDS011;26535;48.788;9.214;2024-03-02T07:54:51;19.05;;;10.98;;
40815;SDS011;26535;48.788;9.214;2024-03-02T07:57:17;16.75;;;10.48;;
40815;SDS011;26535;48.788;9.214;2024-03-02T07:59:42;21.15;;;11.93;;
40815;SDS011;26535;48.788;9.214;2024-03-02T08:02:08;16.95;;;10.45;;
40815;SDS011;26535;48.788;9.214;2024-03-02T08:04:34;19.05;;;10.73;;
40815;SDS011;26535;48.788;9.214;2024-03-02T08:07:01;17.75;;;11.32;;
40815;SDS011;26535;48.788;9.214;2024-03-02T08:09:26;19.48;;;11.07;;
40815;SDS011;26535;48.788;9.214;2024-03-02T08:11:52;18.08;;;10.05;;
40815;SDS011;26535;48.788;9.214;2024-03-02T08:14:18;18.65;;;10.98;;
40815;SDS011;26535;48.788;9.214;2024-03-02T08:16:43;16.58;;;10.40;;
40815;SDS011;26535;48.788;9.214;2024-03-02T08:19:10;17.55;;;10.95;;
40815;SDS011;26535;48.788;9.214;2024-03-02T08:21:37;17.80;;;10.85;;
40815;SDS011;26535;48.788;9.214;2024-03-02T08:24:02;17.02;;;10.43;;
40815;SDS011;26535;48.788;9.214;2024-03-02T08:26:28;18.38;;;10.85;;
40815;SDS011;26535;48.788;9.214;2024-03-02T08:28:56;16.52;;;9.95;;
40815;SDS011;26535;48.788;9.214;2024-03-02T08:31:22;14.98;;;9.57;;
40815;SDS011;26535;48.788;9.214;2024-03-02T08:33:48;14.23;;;9.05;;
40815;SDS011;26535;48.788;9.214;2024-03-02T08:36:14;19.42;;;10.00;;
40815;SDS011;26535;48.788;9.214;2024-03-02T08:38:40;14.95;;;9.27;;
40815;SDS011;26535;48.788;9.214;2024-03-02T08:41:07;13.90;;;9.25;;
40815;SDS011;26535;48.788;9.214;2024-03-02T08:43:33;13.60;;;8.38;;
40815;SDS011;26535;48.788;9.214;2024-03-02T08:45:59;15.32;;;8.98;;
40815;SDS011;26535;48.788;9.214;2024-03-02T08:48:25;13.20;;;8.50;;
40815;SDS011;26535;48.788;9.214;2024-03-02T08:50:50;13.50;;;8.63;;
40815;SDS011;26535;48.788;9.214;2024-03-02T08:53:16;15.68;;;9.20;;
40815;SDS011;26535;48.788;9.214;2024-03-02T08:55:44;11.38;;;7.60;;
40815;SDS011;26535;48.788;9.214;2024-03-02T08:58:14;12.60;;;7.68;;
40815;SDS011;26535;48.788;9.214;2024-03-02T09:00:40;13.05;;;7.60;;
40815;SDS011;26535;48.788;9.214;2024-03-02T09:03:06;13.63;;;7.38;;
40815;SDS011;26535;48.788;9.214;2024-03-02T09:05:32;14.85;;;7.78;;
40815;SDS011;26535;48.788;9.214;2024-03-02T09:07:58;12.75;;;7.68;;
40815;SDS011;26535;48.788;9.214;2024-03-02T09:10:23;11.07;;;7.95;;
40815;SDS011;26535;48.788;9.214;2024-03-02T09:12:49;12.00;;;7.40;;
40815;SDS011;26535;48.788;9.214;2024-03-02T09:15:15;10.20;;;6.95;;
40815;SDS011;26535;48.788;9.214;2024-03-02T09:17:41;11.40;;;7.05;;
40815;SDS011;26535;48.788;9.214;2024-03-02T09:20:07;9.48;;;6.30;;
40815;SDS011;26535;48.788;9.214;2024-03-02T09:22:32;10.40;;;6.68;;
40815;SDS011;26535;48.788;9.214;2024-03-02T09:24:58;11.35;;;6.72;;
40815;SDS011;26535;48.788;9.214;2024-03-02T09:27:24;13.00;;;7.38;;
40815;SDS011;26535;48.788;9.214;2024-03-02T09:29:50;11.13;;;6.68;;
40815;SDS011;26535;48.788;9.214;2024-03-02T09:32:16;10.02;;;6.25;;
40815;SDS011;26535;48.788;9.214;2024-03-02T09:34:41;11.20;;;6.20;;
40815;SDS011;26535;48.788;9.214;2024-03-02T09:37:08;9.55;;;6.28;;
40815;SDS011;26535;48.788;9.214;2024-03-02T09:39:34;10.02;;;5.53;;
40815;SDS011;26535;48.788;9.214;2024-03-02T09:42:00;9.40;;;5.70;;
40815;SDS011;26535;48.788;9.214;2024-03-02T09:44:25;9.07;;;5.10;;
40815;SDS011;26535;48.788;9.214;2024-03-02T09:46:51;9.18;;;5.05;;
40815;SDS011;26535;48.788;9.214;2024-03-02T09:49:17;7.88;;;5.05;;
40815;SDS011;26535;48.788;9.214;2024-03-02T09:51:46;7.65;;;5.10;;
40815;SDS011;26535;48.788;9.214;2024-03-02T09:54:13;8.80;;;4.68;;
40815;SDS011;26535;48.788;9.214;2024-03-02T09:56:41;8.43;;;4.88;;
40815;SDS011;26535;48.788;9.214;2024-03-02T09:59:07;10.80;;;5.05;;
40815;SDS011;26535;48.788;9.214;2024-03-02T10:01:32;7.90;;;4.70;;
40815;SDS011;26535;48.788;9.214;2024-03-02T10:03:59;10.15;;;4.50;;
40815;SDS011;26535;48.788;9.214;2024-03-02T10:06:25;7.57;;;4.82;;
40815;SDS011;26535;48.788;9.214;2024-03-02T10:08:53;7.15;;;4.72;;
40815;SDS011;26535;48.788;9.214;2024-03-02T10:11:29;6.55;;;4.28;;
40815;SDS011;26535;48.788;9.214;2024-03-02T10:14:07;6.85;;;4.15;;
40815;SDS011;26535;48.788;9.214;2024-03-02T10:16:34;6.93;;;4.07;;
40815;SDS011;26535;48.788;9.214;2024-03-02T10:19:17;6.10;;;4.13;;
40815;SDS011;26535;48.788;9.214;2024-03-02T10:21:44;6.88;;;4.28;;
40815;SDS011;26535;48.788;9.214;2024-03-02T10:24:11;6.82;;;4.35;;
40815;SDS011;26535;48.788;9.214;2024-03-02T10:26:37;5.82;;;3.83;;
40815;SDS011;26535;48.788;9.214;2024-03-02T10:29:03;7.57;;;4.10;;
40815;SDS011;26535;48.788;9.214;2024-03-02T10:31:29;6.57;;;4.78;;
40815;SDS011;26535;48.788;9.214;2024-03-02T10:33:55;6.03;;;3.88;;
40815;SDS011;26535;48.788;9.214;2024-03-02T10:36:22;6.13;;;3.35;;
40815;SDS011;26535;48.788;9.214;2024-03-02T10:38:48;5.85;;;3.60;;
40815;SDS011;26535;48.788;9.214;2024-03-02T10:41:16;6.55;;;3.90;;
40815;SDS011;26535;48.788;9.214;2024-03-02T10:43:43;6.35;;;3.88;;
40815;SDS011;26535;48.788;9.214;2024-03-02T10:46:10;6.03;;;3.65;;
40815;SDS011;26535;48.788;9.214;2024-03-02T10:48:39;6.00;;;3.60;;
40815;SDS011;26535;48.788;9.214;2024-03-02T10:51:06;5.43;;;3.40;;
40815;SDS011;26535;48.788;9.214;2024-03-02T10:53:32;5.95;;;3.25;;
40815;SDS011;26535;48.788;9.214;2024-03-02T10:55:57;5.93;;;2.92;;
40815;SDS011;26535;48.788;9.214;2024-03-02T10:58:31;6.13;;;3.45;;
40815;SDS011;26535;48.788;9.214;2024-03-02T11:01:03;6.32;;;3.47;;
40815;SDS011;26535;48.788;9.214;2024-03-02T11:03:31;5.63;;;3.63;;
40815;SDS011;26535;48.788;9.214;2024-03-02T11:06:00;4.88;;;3.13;;
40815;SDS011;26535;48.788;9.214;2024-03-02T11:08:31;6.25;;;3.33;;
40815;SDS011;26535;48.788;9.214;2024-03-02T11:11:03;4.55;;;3.03;;
40815;SDS011;26535;48.788;9.214;2024-03-02T11:13:39;5.35;;;3.38;;
40815;SDS011;26535;48.788;9.214;2024-03-02T11:16:14;4.63;;;2.90;;
40815;SDS011;26535;48.788;9.214;2024-03-02T11:18:52;3.63;;;2.40;;
40815;SDS011;26535;48.788;9.214;2024-03-02T11:21:18;5.20;;;2.20;;
40815;SDS011;26535;48.788;9.214;2024-03-02T11:23:44;3.47;;;2.10;;
40815;SDS011;26535;48.788;9.214;2024-03-02T11:26:17;4.35;;;2.40;;
40815;SDS011;26535;48.788;9.214;2024-03-02T11:28:45;3.40;;;2.13;;
40815;SDS011;26535;48.788;9.214;2024-03-02T11:31:12;4.35;;;2.22;;
40815;SDS011;26535;48.788;9.214;2024-03-02T11:33:37;3.42;;;2.15;;
40815;SDS011;26535;48.788;9.214;2024-03-02T11:36:03;4.72;;;2.83;;
40815;SDS011;26535;48.788;9.214;2024-03-02T11:38:32;3.83;;;2.47;;
40815;SDS011;26535;48.788;9.214;2024-03-02T11:40:59;3.42;;;2.00;;
40815;SDS011;26535;48.788;9.214;2024-03-02T11:43:32;3.63;;;1.58;;
40815;SDS011;26535;48.788;9.214;2024-03-02T11:46:01;2.78;;;1.80;;
40815;SDS011;26535;48.788;9.214;2024-03-02T11:48:32;2.38;;;1.50;;
40815;SDS011;26535;48.788;9.214;2024-03-02T11:50:58;2.63;;;1.42;;
40815;SDS011;26535;48.788;9.214;2024-03-02T11:53:26;3.05;;;1.35;;
40815;SDS011;26535;48.788;9.214;2024-03-02T11:55:57;2.05;;;0.90;;
40815;SDS011;26535;48.788;9.214;2024-03-02T11:58:24;1.80;;;0.80;;
40815;SDS011;26535;48.788;9.214;2024-03-02T12:00:55;2.67;;;0.80;;
40815;SDS011;26535;48.788;9.214;2024-03-02T12:03:24;2.10;;;0.70;;
40815;SDS011;26535;48.788;9.214;2024-03-02T12:05:52;1.98;;;0.60;;
40815;SDS011;26535;48.788;9.214;2024-03-02T12:08:20;1.63;;;0.60;;
40815;SDS011;26535;48.788;9.214;2024-03-02T12:10:57;0.85;;;0.40;;
40815;SDS011;26535;48.788;9.214;2024-03-02T12:13:36;1.70;;;0.40;;
40815;SDS011;26535;48.788;9.214;2024-03-02T12:16:04;1.58;;;0.55;;
40815;SDS011;26535;48.788;9.214;2024-03-02T12:18:31;1.23;;;0.50;;
40815;SDS011;26535;48.788;9.214;2024-03-02T12:20:57;0.98;;;0.30;;
40815;SDS011;26535;48.788;9.214;2024-03-02T12:23:23;1.20;;;0.40;;
40815;SDS011;26535;48.788;9.214;2024-03-02T12:26:05;0.88;;;0.40;;
40815;SDS011;26535;48.788;9.214;2024-03-02T12:28:32;1.50;;;0.60;;
40815;SDS011;26535;48.788;9.214;2024-03-02T12:30:58;1.90;;;0.60;;
40815;SDS011;26535;48.788;9.214;2024-03-02T12:33:24;1.60;;;0.52;;
40815;SDS011;26535;48.788;9.214;2024-03-02T12:36:15;1.02;;;0.40;;
40815;SDS011;26535;48.788;9.214;2024-03-02T12:38:47;1.23;;;0.68;;
40815;SDS011;26535;48.788;9.214;2024-03-02T12:41:16;2.72;;;0.90;;
40815;SDS011;26535;48.788;9.214;2024-03-02T12:43:42;1.63;;;0.60;;
40815;SDS011;26535;48.788;9.214;2024-03-02T12:46:07;1.40;;;0.50;;
40815;SDS011;26535;48.788;9.214;2024-03-02T12:48:34;1.70;;;0.60;;
40815;SDS011;26535;48.788;9.214;2024-03-02T12:51:01;1.35;;;0.50;;
40815;SDS011;26535;48.788;9.214;2024-03-02T12:53:27;0.88;;;0.40;;
40815;SDS011;26535;48.788;9.214;2024-03-02T12:55:53;1.30;;;0.50;;
40815;SDS011;26535;48.788;9.214;2024-03-02T12:58:21;2.75;;;0.57;;
40815;SDS011;26535;48.788;9.214;2024-03-02T13:00:47;2.65;;;0.80;;
40815;SDS011;26535;48.788;9.214;2024-03-02T13:03:13;1.98;;;1.10;;
40815;SDS011;26535;48.788;9.214;2024-03-02T13:05:40;1.20;;;0.40;;
40815;SDS011;26535;48.788;9.214;2024-03-02T13:08:06;2.15;;;0.70;;
40815;SDS011;26535;48.788;9.214;2024-03-02T13:10:33;1.52;;;0.63;;
40815;SDS011;26535;48.788;9.214;2024-03-02T13:12:58;1.90;;;0.70;;
40815;SDS011;26535;48.788;9.214;2024-03-02T13:15:26;1.03;;;0.30;;
40815;SDS011;26535;48.788;9.214;2024-03-02T13:17:52;1.10;;;0.35;;
40815;SDS011;26535;48.788;9.214;2024-03-02T13:20:18;0.77;;;0.35;;
40815;SDS011;26535;48.788;9.214;2024-03-02T13:22:45;1.20;;;0.57;;
40815;SDS011;26535;48.788;9.214;2024-03-02T13:25:10;0.82;;;0.30;;
40815;SDS011;26535;48.788;9.214;2024-03-02T13:27:36;1.20;;;0.60;;
40815;SDS011;26535;48.788;9.214;2024-03-02T13:30:03;1.10;;;0.50;;
40815;SDS011;26535;48.788;9.214;2024-03-02T13:32:31;0.70;;;0.30;;
40815;SDS011;26535;48.788;9.214;2024-03-02T13:34:57;0.88;;;0.40;;
40815;SDS011;26535;48.788;9.214;2024-03-02T13:37:22;1.05;;;0.43;;
40815;SDS011;26535;48.788;9.214;2024-03-02T13:39:48;1.83;;;0.50;;
40815;SDS011;26535;48.788;9.214;2024-03-02T13:42:14;1.25;;;0.50;;
40815;SDS011;26535;48.788;9.214;2024-03-02T13:44:40;1.40;;;0.47;;
40815;SDS011;26535;48.788;9.214;2024-03-02T13:47:14;1.38;;;0.50;;
40815;SDS011;26535;48.788;9.214;2024-03-02T13:49:40;0.70;;;0.32;;
40815;SDS011;26535;48.788;9.214;2024-03-02T13:52:10;1.88;;;0.32;;
40815;SDS011;26535;48.788;9.214;2024-03-02T13:54:38;1.20;;;0.50;;
40815;SDS011;26535;48.788;9.214;2024-03-02T13:57:06;1.45;;;0.43;;
40815;SDS011;26535;48.788;9.214;2024-03-02T13:59:33;1.67;;;0.50;;
40815;SDS011;26535;48.788;9.214;2024-03-02T14:02:02;1.38;;;0.40;;
40815;SDS011;26535;48.788;9.214;2024-03-02T14:04:30;1.58;;;0.60;;
40815;SDS011;26535;48.788;9.214;2024-03-02T14:06:57;1.10;;;0.40;;
40815;SDS011;26535;48.788;9.214;2024-03-02T14:09:22;0.98;;;0.50;;
40815;SDS011;26535;48.788;9.214;2024-03-02T14:11:49;1.40;;;0.60;;
40815;SDS011;26535;48.788;9.214;2024-03-02T14:14:16;2.78;;;0.70;;
40815;SDS011;26535;48.788;9.214;2024-03-02T14:16:42;1.60;;;0.60;;
40815;SDS011;26535;48.788;9.214;2024-03-02T14:19:08;1.02;;;0.40;;
40815;SDS011;26535;48.788;9.214;2024-03-02T14:21:34;1.63;;;0.52;;
40815;SDS011;26535;48.788;9.214;2024-03-02T14:24:01;0.98;;;0.50;;
40815;SDS011;26535;48.788;9.214;2024-03-02T14:26:27;1.00;;;0.50;;
40815;SDS011;26535;48.788;9.214;2024-03-02T14:28:53;1.50;;;0.50;;
40815;SDS011;26535;48.788;9.214;2024-03-02T14:31:19;2.45;;;1.15;;
40815;SDS011;26535;48.788;9.214;2024-03-02T14:33:46;1.30;;;0.80;;
40815;SDS011;26535;48.788;9.214;2024-03-02T14:36:11;1.58;;;0.70;;
40815;SDS011;26535;48.788;9.214;2024-03-02T14:38:38;1.77;;;0.40;;
40815;SDS011;26535;48.788;9.214;2024-03-02T14:41:04;1.55;;;0.60;;
40815;SDS011;26535;48.788;9.214;2024-03-02T14:43:30;1.48;;;0.50;;
40815;SDS011;26535;48.788;9.214;2024-03-02T14:45:56;1.70;;;0.50;;
40815;SDS011;26535;48.788;9.214;2024-03-02T14:48:22;1.30;;;0.50;;
40815;SDS011;26535;48.788;9.214;2024-03-02T14:50:48;0.80;;;0.40;;
40815;SDS011;26535;48.788;9.214;2024-03-02T14:53:14;1.35;;;0.45;;
40815;SDS011;26535;48.788;9.214;2024-03-02T14:55:39;2.33;;;0.60;;
40815;SDS011;26535;48.788;9.214;2024-03-02T14:58:05;0.88;;;0.38;;
40815;SDS011;26535;48.788;9.214;2024-03-02T15:00:31;1.17;;;0.40;;
40815;SDS011;26535;48.788;9.214;2024-03-02T15:02:56;1.83;;;0.30;;
40815;SDS011;26535;48.788;9.214;2024-03-02T15:05:22;0.80;;;0.30;;
40815;SDS011;26535;48.788;9.214;2024-03-02T15:07:52;1.15;;;0.40;;
40815;SDS011;26535;48.788;9.214;2024-03-02T15:10:18;2.05;;;0.40;;
40815;SDS011;26535;48.788;9.214;2024-03-02T15:12:44;2.30;;;0.50;;
40815;SDS011;26535;48.788;9.214;2024-03-02T15:15:10;1.20;;;0.50;;
40815;SDS011;26535;48.788;9.214;2024-03-02T15:17:36;1.25;;;0.40;;
40815;SDS011;26535;48.788;9.214;2024-03-02T15:20:02;1.45;;;0.55;;
40815;SDS011;26535;48.788;9.214;2024-03-02T15:22:29;1.40;;;0.57;;
40815;SDS011;26535;48.788;9.214;2024-03-02T15:24:55;1.25;;;0.60;;
40815;SDS011;26535;48.788;9.214;2024-03-02T15:27:21;1.05;;;0.30;;
40815;SDS011;26535;48.788;9.214;2024-03-02T15:29:46;1.58;;;0.63;;
40815;SDS011;26535;48.788;9.214;2024-03-02T15:32:15;2.22;;;0.50;;
40815;SDS011;26535;48.788;9.214;2024-03-02T15:34:41;1.13;;;0.38;;
40815;SDS011;26535;48.788;9.214;2024-03-02T15:37:08;1.17;;;0.52;;
40815;SDS011;26535;48.788;9.214;2024-03-02T15:39:34;1.42;;;0.47;;
40815;SDS011;26535;48.788;9.214;2024-03-02T15:41:59;1.95;;;0.40;;
40815;SDS011;26535;48.788;9.214;2024-03-02T15:44:25;1.50;;;0.40;;
40815;SDS011;26535;48.788;9.214;2024-03-02T15:46:51;1.15;;;0.40;;
40815;SDS011;26535;48.788;9.214;2024-03-02T15:49:17;2.08;;;0.60;;
40815;SDS011;26535;48.788;9.214;2024-03-02T15:51:42;1.23;;;0.60;;
40815;SDS011;26535;48.788;9.214;2024-03-02T15:54:09;1.50;;;0.60;;
40815;SDS011;26535;48.788;9.214;2024-03-02T15:56:36;2.60;;;0.70;;
40815;SDS011;26535;48.788;9.214;2024-03-02T15:59:02;1.95;;;0.70;;
40815;SDS011;26535;48.788;9.214;2024-03-02T16:01:30;1.45;;;0.60;;
40815;SDS011;26535;48.788;9.214;2024-03-02T16:03:59;1.25;;;0.55;;
40815;SDS011;26535;48.788;9.214;2024-03-02T16:06:32;1.65;;;0.50;;
40815;SDS011;26535;48.788;9.214;2024-03-02T16:09:10;3.15;;;0.85;;
40815;SDS011;26535;48.788;9.214;2024-03-02T16:11:45;2.63;;;0.80;;
40815;SDS011;26535;48.788;9.214;2024-03-02T16:14:14;2.55;;;0.80;;
40815;SDS011;26535;48.788;9.214;2024-03-02T16:17:00;3.45;;;1.00;;
40815;SDS011;26535;48.788;9.214;2024-03-02T16:19:27;2.15;;;1.00;;
40815;SDS011;26535;48.788;9.214;2024-03-02T16:21:55;2.13;;;1.02;;
40815;SDS011;26535;48.788;9.214;2024-03-02T16:24:21;3.05;;;0.85;;
40815;SDS011;26535;48.788;9.214;2024-03-02T16:26:46;2.38;;;1.17;;
40815;SDS011;26535;48.788;9.214;2024-03-02T16:29:12;3.33;;;1.05;;
40815;SDS011;26535;48.788;9.214;2024-03-02T16:31:39;2.53;;;1.10;;
40815;SDS011;26535;48.788;9.214;2024-03-02T16:34:05;2.03;;;1.02;;
40815;SDS011;26535;48.788;9.214;2024-03-02T16:36:31;2.20;;;1.02;;
40815;SDS011;26535;48.788;9.214;2024-03-02T16:39:07;3.30;;;1.25;;
40815;SDS011;26535;48.788;9.214;2024-03-02T16:41:37;4.95;;;1.23;;
40815;SDS011;26535;48.788;9.214;2024-03-02T16:44:06;2.67;;;1.35;;
40815;SDS011;26535;48.788;9.214;2024-03-02T16:46:31;3.97;;;1.30;;
40815;SDS011;26535;48.788;9.214;2024-03-02T16:48:57;4.05;;;1.58;;
40815;SDS011;26535;48.788;9.214;2024-03-02T16:51:23;3.80;;;1.65;;
40815;SDS011;26535;48.788;9.214;2024-03-02T16:53:49;2.80;;;1.48;;
40815;SDS011;26535;48.788;9.214;2024-03-02T16:56:15;3.55;;;1.38;;
40815;SDS011;26535;48.788;9.214;2024-03-02T16:58:40;4.28;;;1.55;;
40815;SDS011;26535;48.788;9.214;2024-03-02T17:01:06;3.83;;;1.67;;
40815;SDS011;26535;48.788;9.214;2024-03-02T17:03:45;5.85;;;2.08;;
40815;SDS011;26535;48.788;9.214;2024-03-02T17:09:18;3.97;;;2.20;;
40815;SDS011;26535;48.788;9.214;2024-03-02T17:11:43;5.30;;;2.40;;
40815;SDS011;26535;48.788;9.214;2024-03-02T17:14:15;3.70;;;2.40;;
40815;SDS011;26535;48.788;9.214;2024-03-02T17:16:41;5.13;;;2.60;;
40815;SDS011;26535;48.788;9.214;2024-03-02T17:19:07;4.20;;;2.30;;
40815;SDS011;26535;48.788;9.214;2024-03-02T17:21:41;5.22;;;2.95;;
40815;SDS011;26535;48.788;9.214;2024-03-02T17:24:18;5.35;;;2.30;;
40815;SDS011;26535;48.788;9.214;2024-03-02T17:26:44;5.05;;;2.53;;
40815;SDS011;26535;48.788;9.214;2024-03-02T17:29:10;7.00;;;3.25;;
40815;SDS011;26535;48.788;9.214;2024-03-02T17:31:37;6.15;;;3.10;;
40815;SDS011;26535;48.788;9.214;2024-03-02T17:34:03;4.63;;;2.90;;
40815;SDS011;26535;48.788;9.214;2024-03-02T17:36:28;9.40;;;3.63;;
40815;SDS011;26535;48.788;9.214;2024-03-02T17:38:54;7.13;;;3.45;;
40815;SDS011;26535;48.788;9.214;2024-03-02T17:41:20;7.38;;;3.95;;
40815;SDS011;26535;48.788;9.214;2024-03-02T17:43:46;6.55;;;4.05;;
40815;SDS011;26535;48.788;9.214;2024-03-02T17:49:05;10.10;;;4.88;;
40815;SDS011;26535;48.788;9.214;2024-03-02T17:51:32;7.75;;;4.40;;
40815;SDS011;26535;48.788;9.214;2024-03-02T17:53:57;7.90;;;4.40;;
40815;SDS011;26535;48.788;9.214;2024-03-02T17:56:23;8.63;;;5.15;;
40815;SDS011;26535;48.788;9.214;2024-03-02T17:58:49;8.50;;;5.20;;
40815;SDS011;26535;48.788;9.214;2024-03-02T18:01:14;10.02;;;5.93;;
40815;SDS011;26535;48.788;9.214;2024-03-02T18:03:41;10.52;;;6.07;;
40815;SDS011;26535;48.788;9.214;2024-03-02T18:06:07;11.02;;;6.15;;
40815;SDS011;26535;48.788;9.214;2024-03-02T18:08:33;9.18;;;5.40;;
40815;SDS011;26535;48.788;9.214;2024-03-02T18:11:00;9.43;;;5.95;;
40815;SDS011;26535;48.788;9.214;2024-03-02T18:13:26;9.40;;;5.75;;
40815;SDS011;26535;48.788;9.214;2024-03-02T18:15:52;10.25;;;6.18;;
40815;SDS011;26535;48.788;9.214;2024-03-02T18:18:18;9.15;;;5.80;;
40815;SDS011;26535;48.788;9.214;2024-03-02T18:20:43;11.68;;;6.50;;
40815;SDS011;26535;48.788;9.214;2024-03-02T18:23:12;11.18;;;6.70;;
40815;SDS011;26535;48.788;9.214;2024-03-02T18:25:38;9.85;;;6.10;;
40815;SDS011;26535;48.788;9.214;2024-03-02T18:28:06;11.80;;;6.35;;
40815;SDS011;26535;48.788;9.214;2024-03-02T18:30:31;11.48;;;7.15;;
40815;SDS011;26535;48.788;9.214;2024-03-02T18:32:57;10.52;;;6.35;;
40815;SDS011;26535;48.788;9.214;2024-03-02T18:35:23;12.00;;;7.03;;
40815;SDS011;26535;48.788;9.214;2024-03-02T18:37:49;12.88;;;7.10;;
40815;SDS011;26535;48.788;9.214;2024-03-02T18:40:14;13.45;;;8.25;;
40815;SDS011;26535;48.788;9.214;2024-03-02T18:42:40;13.75;;;8.65;;
40815;SDS011;26535;48.788;9.214;2024-03-02T18:45:06;14.88;;;8.40;;
40815;SDS011;26535;48.788;9.214;2024-03-02T18:50:31;14.25;;;8.52;;
40815;SDS011;26535;48.788;9.214;2024-03-02T18:53:02;14.48;;;8.32;;
40815;SDS011;26535;48.788;9.214;2024-03-02T18:55:28;17.42;;;9.45;;
40815;SDS011;26535;48.788;9.214;2024-03-02T18:57:55;14.63;;;9.52;;
40815;SDS011;26535;48.788;9.214;2024-03-02T19:00:22;17.48;;;9.98;;
40815;SDS011;26535;48.788;9.214;2024-03-02T19:02:48;17.25;;;9.85;;
40815;SDS011;26535;48.788;9.214;2024-03-02T19:05:13;16.85;;;9.82;;
40815;SDS011;26535;48.788;9.214;2024-03-02T19:07:39;17.15;;;10.48;;
40815;SDS011;26535;48.788;9.214;2024-03-02T19:10:05;17.27;;;10.25;;
40815;SDS011;26535;48.788;9.214;2024-03-02T19:12:36;17.13;;;10.85;;
40815;SDS011;26535;48.788;9.214;2024-03-02T19:15:05;18.27;;;10.50;;
40815;SDS011;26535;48.788;9.214;2024-03-02T19:17:31;16.67;;;10.07;;
40815;SDS011;26535;48.788;9.214;2024-03-02T19:19:57;19.55;;;10.73;;
40815;SDS011;26535;48.788;9.214;2024-03-02T19:22:22;16.33;;;10.80;;
40815;SDS011;26535;48.788;9.214;2024-03-02T19:24:49;17.50;;;10.77;;
40815;SDS011;26535;48.788;9.214;2024-03-02T19:27:15;20.40;;;11.30;;
40815;SDS011;26535;48.788;9.214;2024-03-02T19:29:40;17.90;;;11.07;;
40815;SDS011;26535;48.788;9.214;2024-03-02T19:32:06;16.55;;;10.57;;
40815;SDS011;26535;48.788;9.214;2024-03-02T19:34:32;20.55;;;11.52;;
40815;SDS011;26535;48.788;9.214;2024-03-02T19:36:58;18.98;;;11.20;;
40815;SDS011;26535;48.788;9.214;2024-03-02T19:39:25;19.15;;;11.20;;
40815;SDS011;26535;48.788;9.214;2024-03-02T19:44:19;20.02;;;11.77;;
40815;SDS011;26535;48.788;9.214;2024-03-02T19:46:45;22.02;;;11.73;;
40815;SDS011;26535;48.788;9.214;2024-03-02T19:49:10;18.88;;;10.82;;
40815;SDS011;26535;48.788;9.214;2024-03-02T19:51:36;18.63;;;11.23;;
40815;SDS011;26535;48.788;9.214;2024-03-02T19:54:08;18.33;;;11.52;;
40815;SDS011;26535;48.788;9.214;2024-03-02T19:56:34;21.13;;;11.68;;
40815;SDS011;26535;48.788;9.214;2024-03-02T19:59:01;19.65;;;11.48;;
40815;SDS011;26535;48.788;9.214;2024-03-02T20:01:30;18.85;;;11.65;;
40815;SDS011;26535;48.788;9.214;2024-03-02T20:03:58;21.73;;;11.63;;
40815;SDS011;26535;48.788;9.214;2024-03-02T20:06:24;22.38;;;12.80;;
40815;SDS011;26535;48.788;9.214;2024-03-02T20:08:50;20.17;;;11.80;;
40815;SDS011;26535;48.788;9.214;2024-03-02T20:11:15;22.30;;;12.63;;
40815;SDS011;26535;48.788;9.214;2024-03-02T20:13:42;21.25;;;11.93;;
40815;SDS011;26535;48.788;9.214;2024-03-02T20:16:07;21.33;;;11.70;;
40815;SDS011;26535;48.788;9.214;2024-03-02T20:18:34;20.00;;;12.90;;
40815;SDS011;26535;48.788;9.214;2024-03-02T20:20:59;23.35;;;12.70;;
40815;SDS011;26535;48.788;9.214;2024-03-02T20:23:31;23.73;;;12.50;;
40815;SDS011;26535;48.788;9.214;2024-03-02T20:25:57;20.27;;;11.82;;
40815;SDS011;26535;48.788;9.214;2024-03-02T20:28:23;23.13;;;13.43;;
40815;SDS011;26535;48.788;9.214;2024-03-02T20:30:49;25.05;;;13.75;;
40815;SDS011;26535;48.788;9.214;2024-03-02T20:33:15;27.92;;;14.88;;
40815;SDS011;26535;48.788;9.214;2024-03-02T20:35:40;24.05;;;14.13;;